Time;durP1;ratioP1;P1;durP2;ratioP2;P2;SDS_P1;SDS_P2;PMS_P1;PMS_P2;Temp;Humidity;BMP_temperature;BMP_pressure;BME280_temperature;BME280_humidity;BME280_pressure;Samples;Min_cycle;Max_cycle;Signal;HPM_P1;HPM_P2
2023/01/19 00:00:27;;;;;;;0.03;0.03;;;-1.40;99.90;;;;;;4992338;28;20175;-69
2023/01/19 00:02:53;;;;;;;0.00;0.00;;;-1.30;99.90;;;;;;5003212;28;20241;-70
2023/01/19 00:05:19;;;;;;;0.00;0.00;;;-1.30;99.90;;;;;;5011819;28;20543;-69
2023/01/19 00:07:45;;;;;;;0.10;0.10;;;-1.30;99.90;;;;;;5011712;28;20178;-69
2023/01/19 00:10:11;;;;;;;0.83;0.63;;;-1.30;99.90;;;;;;5011985;28;20190;-70
2023/01/19 00:12:36;;;;;;;0.00;0.00;;;-1.30;99.90;;;;;;5010055;28;20226;-69
2023/01/19 00:15:02;;;;;;;0.00;0.00;;;-1.30;99.90;;;;;;5011647;28;20171;-69
2023/01/19 00:17:28;;;;;;;0.53;0.50;;;-1.20;99.90;;;;;;5011936;28;20179;-69
2023/01/19 00:19:53;;;;;;;0.00;0.00;;;-1.20;99.90;;;;;;4994351;28;20171;-69
2023/01/19 00:22:19;;;;;;;0.20;0.20;;;-1.20;99.90;;;;;;5011619;28;20174;-69
2023/01/19 00:24:44;;;;;;;1.53;1.43;;;-1.20;99.90;;;;;;5011532;28;20166;-70
2023/01/19 00:27:10;;;;;;;0.03;0.03;;;-1.20;99.90;;;;;;5014064;28;20265;-69
2023/01/19 00:29:35;;;;;;;0.07;0.07;;;-1.20;99.90;;;;;;4997969;28;20206;-69
2023/01/19 00:32:03;;;;;;;0.30;0.30;;;-1.20;99.90;;;;;;5015296;28;20210;-69
2023/01/19 00:34:35;;;;;;;1.10;0.80;;;-1.20;99.90;;;;;;5015537;28;20226;-69
2023/01/19 00:37:10;;;;;;;0.03;0.03;;;-1.20;99.90;;;;;;4990813;28;20183;-70
2023/01/19 00:39:36;;;;;;;0.00;0.00;;;-1.20;99.90;;;;;;5015245;28;20185;-69
2023/01/19 00:44:46;;;;;;;0.27;0.27;;;-1.20;99.90;;;;;;5018752;28;20534;-69
2023/01/19 00:47:11;;;;;;;0.43;0.43;;;-1.20;99.90;;;;;;5024913;28;20170;-69
2023/01/19 00:49:37;;;;;;;0.10;0.10;;;-1.20;99.90;;;;;;5034897;28;20552;-69
2023/01/19 00:52:03;;;;;;;0.23;0.23;;;-1.20;99.90;;;;;;5018726;28;20575;-69
2023/01/19 00:54:28;;;;;;;0.20;0.20;;;-1.20;99.90;;;;;;5014410;28;20249;-69
2023/01/19 00:56:54;;;;;;;0.00;0.00;;;-1.20;99.90;;;;;;5015188;28;20175;-69
2023/01/19 00:59:19;;;;;;;0.00;0.00;;;-1.20;99.90;;;;;;5014583;28;20647;-68
2023/01/19 01:01:45;;;;;;;0.40;0.40;;;-1.30;99.90;;;;;;5014411;28;20585;-69
2023/01/19 01:04:12;;;;;;;0.00;0.00;;;-1.30;99.90;;;;;;5021835;28;20554;-69
2023/01/19 01:06:38;;;;;;;0.00;0.00;;;-1.30;99.90;;;;;;5014613;28;20179;-69
2023/01/19 01:09:10;;;;;;;0.00;0.00;;;-1.30;99.90;;;;;;4996795;28;20194;-69
2023/01/19 01:11:37;;;;;;;0.00;0.00;;;-1.30;99.90;;;;;;5012218;28;20210;-70
2023/01/19 01:14:03;;;;;;;0.00;0.00;;;-1.40;99.90;;;;;;5004743;28;20673;-70
2023/01/19 01:16:28;;;;;;;0.00;0.00;;;-1.30;99.90;;;;;;4997227;28;20210;-70
2023/01/19 01:18:54;;;;;;;0.00;0.00;;;-1.30;99.90;;;;;;4997620;28;20704;-70
2023/01/19 01:21:19;;;;;;;0.20;0.10;;;-1.30;99.90;;;;;;5014515;28;20533;-70
2023/01/19 01:23:45;;;;;;;0.00;0.00;;;-1.30;99.90;;;;;;5014699;28;20627;-69
2023/01/19 01:26:10;;;;;;;0.00;0.00;;;-1.30;99.90;;;;;;5014127;28;20221;-70
2023/01/19 01:28:36;;;;;;;0.10;0.10;;;-1.30;99.90;;;;;;5014477;28;20233;-69
2023/01/19 01:31:01;;;;;;;0.00;0.00;;;-1.30;99.90;;;;;;5014380;28;20181;-70
2023/01/19 01:33:27;;;;;;;0.00;0.00;;;-1.30;99.90;;;;;;5014589;28;20179;-70
2023/01/19 01:35:52;;;;;;;0.00;0.00;;;-1.30;99.90;;;;;;5014518;28;20185;-70
2023/01/19 01:38:18;;;;;;;0.00;0.00;;;-1.20;99.90;;;;;;5014068;28;20175;-69
2023/01/19 01:40:43;;;;;;;0.00;0.00;;;-1.20;99.90;;;;;;5014107;28;20170;-71
2023/01/19 01:43:14;;;;;;;0.00;0.00;;;-1.20;99.90;;;;;;5014293;28;20536;-69
2023/01/19 01:45:40;;;;;;;0.00;0.00;;;-1.20;99.90;;;;;;5001220;28;20186;-69
2023/01/19 01:48:27;;;;;;;0.00;0.00;;;-1.20;99.90;;;;;;4994643;28;20502;-69
2023/01/19 01:51:25;;;;;;;0.00;0.00;;;-1.20;99.90;;;;;;4994451;28;20531;-69
2023/01/19 01:54:15;;;;;;;0.13;0.13;;;-1.20;99.90;;;;;;4994321;28;20581;-69
2023/01/19 01:56:44;;;;;;;0.00;0.00;;;-1.20;99.90;;;;;;4977171;28;20183;-69
2023/01/19 01:59:37;;;;;;;1.40;1.03;;;-1.20;99.90;;;;;;4994273;28;20237;-69
2023/01/19 02:05:10;;;;;;;0.30;0.30;;;-1.20;99.90;;;;;;5014181;28;20181;-69
2023/01/19 02:13:21;;;;;;;0.27;0.27;;;-1.30;99.90;;;;;;5013712;28;20229;-70
2023/01/19 02:15:53;;;;;;;0.00;0.00;;;-1.30;99.90;;;;;;5013550;28;20253;-69
2023/01/19 02:18:20;;;;;;;0.00;0.00;;;-1.30;99.90;;;;;;5011221;28;20561;-69
2023/01/19 02:21:07;;;;;;;0.00;0.00;;;-1.40;99.90;;;;;;5013473;28;20179;-70
2023/01/19 02:23:51;;;;;;;0.20;0.20;;;-1.40;99.90;;;;;;4995893;28;20205;-69
2023/01/19 02:26:29;;;;;;;0.00;0.00;;;-1.50;99.90;;;;;;5010077;28;20179;-68
2023/01/19 02:29:02;;;;;;;0.00;0.00;;;-1.50;99.90;;;;;;5012861;28;20186;-69
2023/01/19 02:31:29;;;;;;;0.00;0.00;;;-1.50;99.90;;;;;;5004610;28;20670;-69
2023/01/19 02:33:56;;;;;;;0.00;0.00;;;-1.50;99.90;;;;;;4993721;28;20194;-69
2023/01/19 02:36:37;;;;;;;0.00;0.00;;;-1.50;99.90;;;;;;4988170;28;20202;-69
2023/01/19 02:39:04;;;;;;;0.10;0.10;;;-1.50;99.90;;;;;;5013366;28;20170;-70
2023/01/19 02:41:37;;;;;;;0.00;0.00;;;-1.50;99.90;;;;;;5013213;28;20163;-70
2023/01/19 02:44:05;;;;;;;0.00;0.00;;;-1.40;99.90;;;;;;5012950;28;20538;-69
2023/01/19 02:46:31;;;;;;;0.00;0.00;;;-1.40;99.90;;;;;;5009412;28;20209;-70
2023/01/19 02:49:00;;;;;;;0.00;0.00;;;-1.40;99.90;;;;;;5012277;28;20642;-69
2023/01/19 02:51:27;;;;;;;0.13;0.13;;;-1.40;99.90;;;;;;4995381;28;20573;-69
2023/01/19 02:54:24;;;;;;;0.00;0.00;;;-1.30;99.90;;;;;;5012677;28;20215;-70
2023/01/19 02:56:59;;;;;;;0.00;0.00;;;-1.30;99.90;;;;;;5001542;28;20654;-69
2023/01/19 02:59:52;;;;;;;0.00;0.00;;;-1.30;99.90;;;;;;5011894;28;20224;-71
2023/01/19 03:02:32;;;;;;;0.00;0.00;;;-1.40;99.90;;;;;;5012385;28;20249;-70
2023/01/19 03:05:21;;;;;;;0.00;0.00;;;-1.40;99.90;;;;;;5011803;28;20178;-70
2023/01/19 03:08:12;;;;;;;0.00;0.00;;;-1.40;99.90;;;;;;5011828;28;20167;-70
2023/01/19 03:10:40;;;;;;;0.10;0.10;;;-1.40;99.90;;;;;;5011682;28;20182;-69
2023/01/19 03:13:24;;;;;;;0.00;0.00;;;-1.40;99.90;;;;;;5009980;28;20215;-69
2023/01/19 03:16:20;;;;;;;0.27;0.27;;;-1.40;99.90;;;;;;5001203;28;20236;-69
2023/01/19 03:18:52;;;;;;;0.20;0.20;;;-1.40;99.90;;;;;;5008311;28;20274;-69
2023/01/19 03:21:19;;;;;;;0.10;0.10;;;-1.40;99.90;;;;;;5004947;28;20174;-70
2023/01/19 03:23:48;;;;;;;0.60;0.60;;;-1.40;99.90;;;;;;5006329;28;20213;-69
2023/01/19 03:26:19;;;;;;;0.00;0.00;;;-1.40;99.90;;;;;;5001957;28;20175;-69
2023/01/19 03:28:46;;;;;;;0.40;0.40;;;-1.50;99.90;;;;;;5011288;28;20182;-70
2023/01/19 03:31:19;;;;;;;0.00;0.00;;;-1.50;99.90;;;;;;5006903;28;20229;-69
2023/01/19 03:33:56;;;;;;;0.70;0.70;;;-1.50;99.90;;;;;;5009757;28;20270;-70
2023/01/19 03:36:32;;;;;;;0.57;0.57;;;-1.50;99.90;;;;;;5010586;28;20179;-69
2023/01/19 03:39:01;;;;;;;0.30;0.30;;;-1.50;99.90;;;;;;5010489;28;20190;-69
2023/01/19 03:41:28;;;;;;;0.00;0.00;;;-1.50;99.90;;;;;;5010812;28;20236;-69
2023/01/19 03:43:55;;;;;;;0.00;0.00;;;-1.50;99.90;;;;;;5006854;28;20654;-69
2023/01/19 03:46:23;;;;;;;0.50;0.50;;;-1.40;99.90;;;;;;5011262;28;20179;-69
2023/01/19 03:48:48;;;;;;;0.20;0.20;;;-1.40;99.90;;;;;;5011314;28;20190;-69
2023/01/19 03:51:15;;;;;;;0.00;0.00;;;-1.30;99.90;;;;;;4996165;28;20183;-68
2023/01/19 03:53:41;;;;;;;0.00;0.00;;;-1.30;99.90;;;;;;4967325;28;1067375;-69
2023/01/19 03:56:17;;;;;;;1.40;0.53;;;-1.30;99.90;;;;;;5012115;28;20422;-70
2023/01/19 03:58:42;;;;;;;0.00;0.00;;;-1.20;99.90;;;;;;4999721;28;20186;-69
2023/01/19 04:01:08;;;;;;;0.00;0.00;;;-1.20;99.90;;;;;;4990124;28;20184;-70
2023/01/19 04:03:33;;;;;;;0.00;0.00;;;-1.20;99.90;;;;;;4992296;28;20266;-69
2023/01/19 04:05:59;;;;;;;0.10;0.10;;;-1.10;99.90;;;;;;4992206;28;20182;-69
2023/01/19 04:08:25;;;;;;;0.10;0.10;;;-1.10;99.90;;;;;;4992340;28;20189;-70
2023/01/19 04:10:50;;;;;;;0.00;0.00;;;-1.10;99.90;;;;;;4992372;28;20258;-69
2023/01/19 04:13:16;;;;;;;0.00;0.00;;;-1.00;99.90;;;;;;4992373;28;20215;-70
2023/01/19 04:15:41;;;;;;;0.10;0.10;;;-1.00;99.90;;;;;;4992142;28;20234;-70
2023/01/19 04:18:07;;;;;;;0.00;0.00;;;-1.00;99.90;;;;;;5001118;28;20195;-69
2023/01/19 04:20:33;;;;;;;0.03;0.03;;;-1.00;99.90;;;;;;5011737;28;20191;-70
2023/01/19 04:22:59;;;;;;;0.00;0.00;;;-1.00;99.90;;;;;;5011701;28;20175;-69
2023/01/19 04:25:25;;;;;;;0.00;0.00;;;-1.00;99.90;;;;;;5008231;28;20179;-68
2023/01/19 04:27:52;;;;;;;0.00;0.00;;;-1.00;99.90;;;;;;4992169;28;20176;-69
2023/01/19 04:30:18;;;;;;;0.00;0.00;;;-1.00;99.90;;;;;;4992228;28;20184;-70
2023/01/19 04:32:43;;;;;;;0.00;0.00;;;-1.00;99.90;;;;;;4992065;28;20570;-70
2023/01/19 04:35:09;;;;;;;0.00;0.00;;;-1.00;99.90;;;;;;5009552;28;20182;-69
2023/01/19 04:37:34;;;;;;;0.00;0.00;;;-1.00;99.90;;;;;;4992250;28;20198;-68
2023/01/19 04:40:00;;;;;;;0.10;0.10;;;-1.00;99.90;;;;;;4974499;28;20262;-68
2023/01/19 04:42:26;;;;;;;0.00;0.00;;;-1.00;99.90;;;;;;5002332;28;20183;-68
2023/01/19 04:44:52;;;;;;;0.00;0.00;;;-1.00;99.90;;;;;;5010875;28;20664;-68
2023/01/19 04:47:18;;;;;;;0.10;0.10;;;-1.00;99.90;;;;;;4994106;28;20187;-67
2023/01/19 04:49:44;;;;;;;0.00;0.00;;;-1.00;99.90;;;;;;5009442;28;20237;-70
2023/01/19 04:52:10;;;;;;;0.00;0.00;;;-1.00;99.90;;;;;;4993947;28;20227;-68
2023/01/19 04:54:35;;;;;;;0.00;0.00;;;-1.00;99.90;;;;;;5005610;28;20227;-69
2023/01/19 04:57:01;;;;;;;0.00;0.00;;;-0.90;99.90;;;;;;4997620;28;20187;-68
2023/01/19 04:59:26;;;;;;;0.10;0.10;;;-0.90;99.90;;;;;;5010292;28;20233;-70
2023/01/19 05:01:52;;;;;;;0.00;0.00;;;-0.90;99.90;;;;;;5009291;28;20218;-66
2023/01/19 05:04:17;;;;;;;0.00;0.00;;;-0.90;99.90;;;;;;5011241;28;20185;-67
2023/01/19 05:06:43;;;;;;;0.00;0.00;;;-0.80;99.90;;;;;;5010976;28;20182;-64
2023/01/19 05:09:12;;;;;;;0.00;0.00;;;-0.80;99.90;;;;;;5010745;28;20178;-66
2023/01/19 05:11:37;;;;;;;0.00;0.00;;;-0.80;99.90;;;;;;5010309;28;20217;-64
2023/01/19 05:14:03;;;;;;;0.00;0.00;;;-0.70;99.90;;;;;;5013754;28;20183;-65
2023/01/19 05:16:29;;;;;;;0.10;0.10;;;-0.70;99.90;;;;;;5013689;28;20179;-68
2023/01/19 05:18:54;;;;;;;0.00;0.00;;;-0.70;99.90;;;;;;5013577;28;20225;-67
2023/01/19 05:21:20;;;;;;;0.00;0.00;;;-0.70;99.90;;;;;;5014050;28;20214;-67
2023/01/19 05:23:45;;;;;;;0.00;0.00;;;-0.70;99.90;;;;;;5014047;28;20657;-67
2023/01/19 05:26:11;;;;;;;0.00;0.00;;;-0.70;99.90;;;;;;4996638;28;20654;-68
2023/01/19 05:28:36;;;;;;;0.00;0.00;;;-0.70;99.90;;;;;;5014188;28;20197;-67
2023/01/19 05:31:02;;;;;;;0.10;0.10;;;-0.80;99.90;;;;;;5013976;28;20183;-67
2023/01/19 05:33:28;;;;;;;0.10;0.10;;;-0.80;99.90;;;;;;5014077;28;20229;-67
2023/01/19 05:35:54;;;;;;;0.00;0.00;;;-0.80;99.90;;;;;;5013959;28;20175;-67
2023/01/19 05:38:20;;;;;;;0.00;0.00;;;-0.80;99.90;;;;;;5013679;28;20552;-67
2023/01/19 05:40:46;;;;;;;0.00;0.00;;;-0.80;99.90;;;;;;4996427;28;20556;-67
2023/01/19 05:43:12;;;;;;;0.00;0.00;;;-0.90;99.90;;;;;;5014077;28;20187;-69
2023/01/19 05:45:38;;;;;;;0.00;0.00;;;-0.90;99.90;;;;;;5012039;28;20183;-67
2023/01/19 05:48:05;;;;;;;0.10;0.10;;;-0.90;99.90;;;;;;5007980;28;20189;-67
2023/01/19 05:50:31;;;;;;;0.00;0.00;;;-0.90;99.90;;;;;;5013672;28;20190;-67
2023/01/19 05:52:57;;;;;;;0.00;0.00;;;-0.90;99.90;;;;;;4996078;28;20658;-67
2023/01/19 05:55:23;;;;;;;0.10;0.10;;;-0.90;99.90;;;;;;5013482;28;20585;-67
2023/01/19 05:57:48;;;;;;;0.00;0.00;;;-0.90;99.90;;;;;;5013365;28;20193;-67
2023/01/19 06:00:14;;;;;;;0.00;0.00;;;-0.90;99.90;;;;;;5011944;28;20198;-68
2023/01/19 06:02:40;;;;;;;0.10;0.10;;;-0.80;99.90;;;;;;5001822;28;20210;-67
2023/01/19 06:05:05;;;;;;;0.10;0.10;;;-0.80;99.90;;;;;;4995717;28;20597;-67
2023/01/19 06:07:31;;;;;;;0.00;0.00;;;-0.80;99.90;;;;;;5013341;28;20191;-67
2023/01/19 06:09:57;;;;;;;0.00;0.00;;;-0.70;99.90;;;;;;5013090;28;21079;-67
2023/01/19 06:12:23;;;;;;;0.10;0.10;;;-0.70;99.90;;;;;;5013383;28;20736;-67
2023/01/19 06:14:49;;;;;;;0.00;0.00;;;-0.70;99.90;;;;;;5013475;28;20222;-67
2023/01/19 06:17:14;;;;;;;0.00;0.00;;;-0.70;99.90;;;;;;4995553;28;20195;-67
2023/01/19 06:19:40;;;;;;;0.00;0.00;;;-0.70;99.90;;;;;;5012883;28;20191;-67
2023/01/19 06:22:06;;;;;;;0.00;0.00;;;-0.70;99.90;;;;;;5013077;28;20183;-67
2023/01/19 06:24:31;;;;;;;0.13;0.10;;;-0.70;99.90;;;;;;5012056;28;20186;-67
2023/01/19 06:26:59;;;;;;;0.00;0.00;;;-0.70;99.90;;;;;;5012834;28;20190;-67
2023/01/19 06:29:25;;;;;;;0.00;0.00;;;-0.70;99.90;;;;;;5013041;28;20260;-67
2023/01/19 06:31:50;;;;;;;0.10;0.10;;;-0.70;99.90;;;;;;5012794;28;20266;-67
2023/01/19 06:34:16;;;;;;;0.00;0.00;;;-0.70;99.90;;;;;;5013101;28;20183;-67
2023/01/19 06:36:41;;;;;;;0.00;0.00;;;-0.70;99.90;;;;;;5012549;28;20183;-67
2023/01/19 06:39:08;;;;;;;0.17;0.17;;;-0.80;99.90;;;;;;5012828;28;20202;-67
2023/01/19 06:41:34;;;;;;;0.10;0.10;;;-0.80;99.90;;;;;;5012697;28;20660;-67
2023/01/19 06:43:59;;;;;;;0.00;0.00;;;-0.80;99.90;;;;;;4994777;28;20174;-68
2023/01/19 06:46:25;;;;;;;0.10;0.10;;;-0.90;99.90;;;;;;5012651;28;20617;-67
2023/01/19 06:48:51;;;;;;;0.10;0.10;;;-0.90;99.90;;;;;;5012734;28;20190;-67
2023/01/19 06:51:17;;;;;;;0.00;0.00;;;-0.90;99.90;;;;;;5011176;28;20342;-69
2023/01/19 06:53:42;;;;;;;0.00;0.00;;;-0.90;99.90;;;;;;5012351;28;20674;-69
2023/01/19 06:56:08;;;;;;;0.00;0.00;;;-0.10;99.90;;;;;;4995065;28;20202;-69
2023/01/19 06:58:34;;;;;;;0.00;0.00;;;0.00;99.90;;;;;;4995064;28;20178;-69
2023/01/19 07:01:04;;;;;;;0.00;0.00;;;0.00;99.90;;;;;;5012479;28;20187;-69
2023/01/19 07:03:30;;;;;;;0.00;0.00;;;-0.10;99.90;;;;;;5012567;28;20213;-69
2023/01/19 07:05:56;;;;;;;0.23;0.23;;;-0.30;99.90;;;;;;5012355;28;20689;-69
2023/01/19 07:08:22;;;;;;;0.00;0.00;;;-0.40;99.90;;;;;;5012205;28;20266;-70
2023/01/19 07:10:48;;;;;;;0.00;0.00;;;-0.50;99.90;;;;;;5012514;28;20183;-69
2023/01/19 07:13:14;;;;;;;0.00;0.00;;;-0.70;99.90;;;;;;5012627;28;20231;-69
2023/01/19 07:15:40;;;;;;;0.37;0.37;;;-0.70;99.90;;;;;;5011674;28;20595;-69
2023/01/19 07:18:07;;;;;;;0.00;0.00;;;-0.80;99.90;;;;;;5011855;28;20187;-69
2023/01/19 07:20:36;;;;;;;0.33;0.33;;;-0.80;99.90;;;;;;4994706;28;20237;-69
2023/01/19 07:23:03;;;;;;;0.00;0.00;;;-0.90;99.90;;;;;;5001394;28;20184;-69
2023/01/19 07:25:29;;;;;;;0.00;0.00;;;-0.90;99.90;;;;;;4996489;28;20171;-69
2023/01/19 07:27:58;;;;;;;0.10;0.10;;;-0.90;99.90;;;;;;5012164;28;20195;-68
2023/01/19 07:30:24;;;;;;;0.00;0.00;;;-0.90;99.90;;;;;;5011719;28;20638;-69
2023/01/19 07:32:50;;;;;;;0.00;0.00;;;-0.80;99.90;;;;;;5011322;28;20229;-69
2023/01/19 07:35:15;;;;;;;0.10;0.10;;;-0.80;99.90;;;;;;5011838;28;20179;-69
2023/01/19 07:37:41;;;;;;;0.00;0.00;;;-0.80;99.90;;;;;;5011932;28;20187;-69
2023/01/19 07:40:07;;;;;;;0.00;0.00;;;-0.80;99.90;;;;;;5011858;28;20189;-69
2023/01/19 07:42:33;;;;;;;0.00;0.00;;;-0.80;99.90;;;;;;5011489;28;20265;-74
2023/01/19 07:44:59;;;;;;;0.00;0.00;;;-0.70;99.90;;;;;;4994292;28;20261;-70
2023/01/19 07:47:25;;;;;;;0.50;0.50;;;-0.70;99.90;;;;;;5011445;28;20183;-68
2023/01/19 07:49:52;;;;;;;0.00;0.00;;;-0.70;99.90;;;;;;5011469;28;20257;-68
2023/01/19 07:52:17;;;;;;;0.00;0.00;;;-0.60;99.90;;;;;;5011768;28;20210;-68
2023/01/19 07:54:43;;;;;;;0.00;0.00;;;-0.60;99.90;;;;;;5012005;28;20238;-68
2023/01/19 07:57:08;;;;;;;0.13;0.13;;;-0.60;99.90;;;;;;5012077;28;20193;-69
2023/01/19 07:59:34;;;;;;;0.10;0.10;;;-0.50;99.90;;;;;;5012136;28;20258;-68
2023/01/19 08:01:59;;;;;;;0.00;0.00;;;-0.50;99.90;;;;;;5012128;28;20233;-68
2023/01/19 08:04:26;;;;;;;0.20;0.20;;;-0.50;99.90;;;;;;4994524;28;21073;-68
2023/01/19 08:06:52;;;;;;;0.00;0.00;;;-0.50;99.90;;;;;;5011972;28;20175;-69
2023/01/19 08:09:17;;;;;;;0.00;0.00;;;-0.50;99.90;;;;;;5012116;28;20175;-68
2023/01/19 08:11:43;;;;;;;0.00;0.00;;;-0.50;99.90;;;;;;5011906;28;20248;-68
2023/01/19 08:14:09;;;;;;;0.00;0.00;;;-0.50;99.90;;;;;;5011933;28;20250;-68
2023/01/19 08:16:35;;;;;;;0.00;0.00;;;-0.50;99.90;;;;;;5011980;28;20530;-68
2023/01/19 08:19:01;;;;;;;0.10;0.10;;;-0.50;99.90;;;;;;4994235;28;20178;-69
2023/01/19 08:21:27;;;;;;;0.00;0.00;;;-0.40;99.90;;;;;;4994178;28;20197;-69
2023/01/19 08:23:53;;;;;;;0.00;0.00;;;-0.40;99.90;;;;;;5011913;28;20792;-68
2023/01/19 08:26:31;;;;;;;0.03;0.03;;;-0.30;99.90;;;;;;5006946;28;20178;-68
2023/01/19 08:28:59;;;;;;;0.00;0.00;;;-0.20;99.90;;;;;;4992336;28;20654;-69
2023/01/19 08:31:25;;;;;;;0.00;0.00;;;-0.10;99.90;;;;;;4990947;28;20176;-69
2023/01/19 08:33:50;;;;;;;0.07;0.07;;;0.10;99.90;;;;;;4992060;28;20758;-68
2023/01/19 08:36:16;;;;;;;0.00;0.00;;;0.10;99.90;;;;;;4992264;28;20179;-69
2023/01/19 08:38:43;;;;;;;0.00;0.00;;;0.20;99.90;;;;;;4992193;28;20180;-68
2023/01/19 08:41:10;;;;;;;0.00;0.00;;;0.20;99.90;;;;;;4991981;28;20226;-68
2023/01/19 08:43:36;;;;;;;0.00;0.00;;;0.10;99.90;;;;;;4998443;28;20527;-68
2023/01/19 08:46:03;;;;;;;0.00;0.00;;;0.10;99.90;;;;;;5011928;28;20175;-69
2023/01/19 08:48:29;;;;;;;0.00;0.00;;;0.10;99.90;;;;;;5014320;28;20171;-68
2023/01/19 08:50:54;;;;;;;0.00;0.00;;;0.10;99.90;;;;;;5015381;28;20213;-68
2023/01/19 08:53:22;;;;;;;0.00;0.00;;;0.20;99.90;;;;;;5015137;28;20306;-67
2023/01/19 08:55:48;;;;;;;0.23;0.23;;;0.20;99.90;;;;;;5015218;28;20245;-69
2023/01/19 08:58:14;;;;;;;0.00;0.00;;;0.20;99.90;;;;;;4997824;28;20182;-69
2023/01/19 09:00:40;;;;;;;0.00;0.00;;;0.30;99.90;;;;;;5015147;28;20183;-69
2023/01/19 09:03:09;;;;;;;0.00;0.00;;;0.40;99.90;;;;;;4997684;28;20256;-69
2023/01/19 09:05:37;;;;;;;0.00;0.00;;;0.40;99.90;;;;;;5015091;28;20257;-69
2023/01/19 09:08:05;;;;;;;0.40;0.33;;;0.60;99.90;;;;;;5015226;28;20626;-69
2023/01/19 09:10:34;;;;;;;0.00;0.00;;;0.70;99.90;;;;;;5014813;28;20179;-69
2023/01/19 09:13:09;;;;;;;0.00;0.00;;;0.70;99.90;;;;;;5015051;28;20220;-69
2023/01/19 09:15:36;;;;;;;0.00;0.00;;;0.80;99.90;;;;;;5015016;28;20264;-69
2023/01/19 09:18:04;;;;;;;0.03;0.03;;;0.90;99.90;;;;;;5015001;28;20329;-69
2023/01/19 09:20:31;;;;;;;0.10;0.10;;;0.90;99.90;;;;;;5014751;28;20209;-68
2023/01/19 09:22:57;;;;;;;0.00;0.00;;;1.00;99.90;;;;;;5014871;28;20183;-69
2023/01/19 09:25:23;;;;;;;0.10;0.10;;;1.00;99.90;;;;;;5014622;28;20183;-68
2023/01/19 09:27:49;;;;;;;0.00;0.00;;;1.00;99.90;;;;;;4997929;28;20654;-68
2023/01/19 09:30:15;;;;;;;0.00;0.00;;;1.10;99.90;;;;;;4995203;28;20180;-69
2023/01/19 09:32:41;;;;;;;0.00;0.00;;;1.10;99.90;;;;;;4994881;28;20223;-68
2023/01/19 09:35:07;;;;;;;0.00;0.00;;;1.10;99.90;;;;;;4993721;28;20183;-68
2023/01/19 09:37:33;;;;;;;0.00;0.00;;;1.10;99.90;;;;;;4994979;28;20230;-69
2023/01/19 09:39:58;;;;;;;0.10;0.10;;;1.10;99.90;;;;;;4994908;28;20182;-69
2023/01/19 09:42:41;;;;;;;0.00;0.00;;;1.10;99.90;;;;;;4994925;28;20274;-69
2023/01/19 09:45:32;;;;;;;0.00;0.00;;;1.10;99.90;;;;;;5013533;28;20265;-69
2023/01/19 09:47:59;;;;;;;0.00;0.00;;;1.10;99.90;;;;;;4997205;28;20242;-69
2023/01/19 09:50:30;;;;;;;0.00;0.00;;;1.10;99.90;;;;;;5014209;28;20539;-69
2023/01/19 09:53:01;;;;;;;0.22;0.22;;;1.10;99.90;;;;;;5014383;28;20222;-69
2023/01/19 09:55:28;;;;;;;0.10;0.10;;;1.20;99.90;;;;;;5014143;28;20241;-69
2023/01/19 09:57:53;;;;;;;0.00;0.00;;;1.20;99.90;;;;;;5014179;28;20191;-68
2023/01/19 10:00:21;;;;;;;0.00;0.00;;;1.20;99.90;;;;;;5013899;28;20239;-69
2023/01/19 10:03:13;;;;;;;0.00;0.00;;;1.20;99.90;;;;;;5014163;28;20236;-69
2023/01/19 10:05:43;;;;;;;0.00;0.00;;;1.30;99.90;;;;;;5013958;28;20590;-68
2023/01/19 10:08:22;;;;;;;0.00;0.00;;;1.20;99.90;;;;;;5014069;28;20269;-69
2023/01/19 10:10:53;;;;;;;0.00;0.00;;;1.20;99.90;;;;;;5014282;28;20245;-69
2023/01/19 10:13:35;;;;;;;0.03;0.03;;;1.20;99.90;;;;;;5013787;28;20214;-69
2023/01/19 10:16:19;;;;;;;0.30;0.17;;;1.20;99.90;;;;;;5013757;28;20642;-68
2023/01/19 10:18:47;;;;;;;0.00;0.00;;;1.10;99.90;;;;;;5013760;28;20185;-68
2023/01/19 10:21:22;;;;;;;0.00;0.00;;;1.10;99.90;;;;;;5013705;28;20178;-68
2023/01/19 10:23:54;;;;;;;0.00;0.00;;;1.10;99.90;;;;;;5013787;28;20189;-68
2023/01/19 10:26:26;;;;;;;0.00;0.00;;;1.20;99.90;;;;;;5008614;28;20180;-68
2023/01/19 10:29:00;;;;;;;0.00;0.00;;;1.20;99.90;;;;;;4994186;28;20176;-68
2023/01/19 10:31:26;;;;;;;0.00;0.00;;;1.20;99.90;;;;;;4993942;28;20171;-69
2023/01/19 10:33:52;;;;;;;0.00;0.00;;;1.20;99.90;;;;;;4994032;28;20176;-69
2023/01/19 10:36:23;;;;;;;0.00;0.00;;;1.30;99.90;;;;;;4993794;28;20179;-69
2023/01/19 10:38:49;;;;;;;0.00;0.00;;;1.30;99.90;;;;;;4994041;28;20179;-69
2023/01/19 10:41:29;;;;;;;0.20;0.20;;;1.40;99.90;;;;;;4993755;28;20180;-69
2023/01/19 10:44:00;;;;;;;0.00;0.00;;;1.40;99.90;;;;;;5002644;28;20642;-66
2023/01/19 10:46:30;;;;;;;0.00;0.00;;;1.30;99.90;;;;;;5013310;28;20221;-66
2023/01/19 10:48:56;;;;;;;0.00;0.00;;;1.30;99.90;;;;;;5013273;28;20576;-67
2023/01/19 10:51:22;;;;;;;0.10;0.10;;;1.30;99.90;;;;;;5013048;28;20253;-68
2023/01/19 10:53:56;;;;;;;0.00;0.00;;;1.40;99.90;;;;;;5012925;28;20350;-68
2023/01/19 10:56:26;;;;;;;0.03;0.03;;;1.40;99.90;;;;;;5012965;28;20633;-69
2023/01/19 10:58:52;;;;;;;0.00;0.00;;;1.50;99.90;;;;;;5013203;28;20214;-68
2023/01/19 11:01:26;;;;;;;0.00;0.00;;;1.50;99.90;;;;;;5009323;28;20269;-68
2023/01/19 11:03:53;;;;;;;0.00;0.00;;;1.50;99.90;;;;;;4993540;28;20669;-68
2023/01/19 11:06:25;;;;;;;0.08;0.08;;;1.50;99.90;;;;;;4993215;28;20176;-68
2023/01/19 11:08:52;;;;;;;0.00;0.00;;;1.50;99.90;;;;;;4993590;28;20175;-68
2023/01/19 11:11:20;;;;;;;0.22;0.22;;;1.60;99.90;;;;;;4975208;28;20254;-68
2023/01/19 11:14:03;;;;;;;0.00;0.00;;;1.60;99.90;;;;;;4975629;28;20219;-69
2023/01/19 11:16:31;;;;;;;0.00;0.00;;;1.50;99.90;;;;;;4993161;28;20658;-68
2023/01/19 11:19:00;;;;;;;0.00;0.00;;;1.50;99.90;;;;;;4975684;28;20180;-68
2023/01/19 11:21:27;;;;;;;0.80;0.65;;;1.40;99.90;;;;;;5011524;28;20571;-68
2023/01/19 11:23:57;;;;;;;0.20;0.20;;;1.40;99.90;;;;;;4995077;28;20171;-68
2023/01/19 11:26:27;;;;;;;0.00;0.00;;;1.40;99.90;;;;;;5007318;28;20226;-68
2023/01/19 11:28:55;;;;;;;0.00;0.00;;;1.40;99.90;;;;;;4993072;28;20630;-67
2023/01/19 11:31:27;;;;;;;0.17;0.17;;;1.40;99.90;;;;;;4992727;28;20171;-67
2023/01/19 11:34:17;;;;;;;0.00;0.00;;;1.40;99.90;;;;;;4992926;28;20593;-67
2023/01/19 11:37:23;;;;;;;0.00;0.00;;;1.40;99.90;;;;;;4982253;28;20191;-69
2023/01/19 11:39:51;;;;;;;0.00;0.00;;;1.40;99.90;;;;;;4975830;28;20198;-69
2023/01/19 11:42:18;;;;;;;0.00;0.00;;;1.40;99.90;;;;;;4992816;28;20183;-68
2023/01/19 11:45:02;;;;;;;0.00;0.00;;;1.40;99.90;;;;;;5010509;28;20179;-69
2023/01/19 11:47:34;;;;;;;0.00;0.00;;;1.30;99.90;;;;;;5011740;28;20182;-68
2023/01/19 11:50:22;;;;;;;0.52;0.35;;;1.30;99.90;;;;;;4993947;28;20543;-66
2023/01/19 11:53:05;;;;;;;0.73;0.73;;;1.80;99.90;;;;;;5010794;28;20215;-68
2023/01/19 11:56:13;;;;;;;0.00;0.00;;;2.10;99.90;;;;;;5003522;28;20314;-68
2023/01/19 11:58:42;;;;;;;0.43;0.43;;;1.90;99.90;;;;;;4949559;28;20222;-69
2023/01/19 12:01:20;;;;;;;0.00;0.00;;;1.80;99.90;;;;;;5011857;28;20645;-69
2023/01/19 12:04:18;;;;;;;0.10;0.10;;;1.60;99.90;;;;;;5011992;28;20177;-68
2023/01/19 12:06:48;;;;;;;0.00;0.00;;;1.50;99.90;;;;;;5011960;28;20270;-69
2023/01/19 12:09:22;;;;;;;0.13;0.13;;;1.50;99.90;;;;;;5012108;28;20179;-68
2023/01/19 12:11:55;;;;;;;0.00;0.00;;;1.40;99.90;;;;;;5011734;28;20206;-68
2023/01/19 12:14:26;;;;;;;0.17;0.17;;;1.40;99.90;;;;;;5011977;28;20190;-69
2023/01/19 12:16:56;;;;;;;0.20;0.20;;;1.40;99.90;;;;;;5027381;28;20261;-69
2023/01/19 12:19:34;;;;;;;0.00;0.00;;;1.40;99.90;;;;;;5029835;28;20544;-69
2023/01/19 12:22:00;;;;;;;0.05;0.05;;;1.40;99.90;;;;;;5012440;28;20225;-69
2023/01/19 12:24:32;;;;;;;0.00;0.00;;;1.40;99.90;;;;;;5015746;28;20170;-69
2023/01/19 12:27:00;;;;;;;0.00;0.00;;;1.40;99.90;;;;;;5005851;28;20183;-68
2023/01/19 12:29:34;;;;;;;0.25;0.25;;;1.50;99.90;;;;;;4996074;28;20198;-68
2023/01/19 12:32:12;;;;;;;0.00;0.00;;;1.50;99.90;;;;;;4996333;28;20591;-69
2023/01/19 12:34:47;;;;;;;0.22;0.22;;;1.60;99.90;;;;;;4996075;28;20172;-69
2023/01/19 12:37:31;;;;;;;0.00;0.00;;;1.60;99.90;;;;;;4996287;28;20660;-69
2023/01/19 12:40:19;;;;;;;0.10;0.10;;;1.60;99.90;;;;;;4996036;28;20579;-69
2023/01/19 12:42:48;;;;;;;0.20;0.20;;;1.60;99.90;;;;;;4995979;28;20190;-69
2023/01/19 12:45:19;;;;;;;0.00;0.00;;;1.70;99.90;;;;;;4995973;28;20172;-69
2023/01/19 12:47:55;;;;;;;0.00;0.00;;;1.70;99.90;;;;;;4985517;28;20187;-68
2023/01/19 12:50:24;;;;;;;0.00;0.00;;;1.70;99.90;;;;;;5003208;28;20201;-68
2023/01/19 12:52:55;;;;;;;0.13;0.13;;;1.70;99.90;;;;;;5014628;28;20221;-68
2023/01/19 12:55:33;;;;;;;0.00;0.00;;;1.70;99.90;;;;;;4996530;28;20223;-68
2023/01/19 12:58:18;;;;;;;0.00;0.00;;;1.70;99.90;;;;;;5002501;28;20198;-68
2023/01/19 13:00:46;;;;;;;0.00;0.00;;;1.70;99.90;;;;;;5014941;28;20179;-68
2023/01/19 13:03:17;;;;;;;0.30;0.30;;;1.60;99.90;;;;;;4981657;28;20188;-68
2023/01/19 13:05:43;;;;;;;0.00;0.00;;;1.60;99.90;;;;;;5005302;28;20185;-68
2023/01/19 13:08:08;;;;;;;0.00;0.00;;;1.60;99.90;;;;;;5014991;28;20527;-68
2023/01/19 13:10:59;;;;;;;0.00;0.00;;;1.60;99.90;;;;;;5014752;28;20183;-70
2023/01/19 13:13:36;;;;;;;0.00;0.00;;;1.60;99.90;;;;;;5014434;28;20353;-69